createdAt,value
2023-02-07T00:01:51.933Z,104041.72
2023-02-07T00:04:21.009Z,104029.94
2023-02-07T00:06:50.109Z,104042.06
2023-02-07T00:09:19.274Z,104040.97
2023-02-07T00:11:48.343Z,104051.00
2023-02-07T00:15:08.110Z,104056.09
2023-02-07T00:17:38.586Z,104041.16
2023-02-07T00:20:09.264Z,104047.25
2023-02-07T00:22:38.303Z,104045.97
2023-02-07T00:25:07.797Z,104040.88
2023-02-07T00:27:37.054Z,104044.78
2023-02-07T00:30:06.962Z,104048.38
2023-02-07T00:32:38.557Z,104043.41
2023-02-07T00:35:08.742Z,104038.97
2023-02-07T00:37:37.899Z,104041.59
2023-02-07T00:40:07.768Z,104045.66
2023-02-07T00:42:37.561Z,104039.75
2023-02-07T00:45:07.104Z,104036.78
2023-02-07T00:47:37.493Z,104037.63
2023-02-07T00:50:07.358Z,104031.81
2023-02-07T00:52:36.456Z,104035.47
2023-02-07T00:55:05.907Z,104018.34
2023-02-07T00:57:35.342Z,104009.72
2023-02-07T01:00:04.823Z,104026.81
2023-02-07T01:02:34.045Z,104025.97
2023-02-07T01:05:04.656Z,104028.53
2023-02-07T01:07:34.265Z,104037.91
2023-02-07T01:10:03.357Z,104029.22
2023-02-07T01:12:32.448Z,104030.22
2023-02-07T01:15:01.614Z,104024.91
2023-02-07T01:17:30.738Z,104022.38
2023-02-07T01:20:00.664Z,104032.59
2023-02-07T01:22:31.090Z,104027.38
2023-02-07T01:25:00.206Z,104024.78
2023-02-07T01:27:29.267Z,104017.84
2023-02-07T01:29:58.308Z,104004.19
2023-02-07T01:32:27.645Z,104006.81
2023-02-07T01:34:56.725Z,104009.22
2023-02-07T01:37:25.957Z,104005.94
2023-02-07T01:39:56.428Z,104006.75
2023-02-07T01:42:27.486Z,103992.09
2023-02-07T01:45:23.180Z,104004.13
2023-02-07T01:47:53.337Z,104001.63
2023-02-07T01:50:23.553Z,104006.69
2023-02-07T01:52:54.195Z,104011.75
2023-02-07T01:55:29.324Z,104001.22
2023-02-07T01:57:58.597Z,104004.69
2023-02-07T02:00:27.988Z,104012.31
2023-02-07T02:02:57.491Z,104012.31
2023-02-07T02:05:27.189Z,104014.84
2023-02-07T02:07:56.310Z,104014.72
2023-02-07T02:10:37.129Z,104015.03
2023-02-07T02:13:19.495Z,104016.94
2023-02-07T02:15:58.277Z,104009.22
2023-02-07T02:18:51.670Z,104016.06
2023-02-07T02:21:59.179Z,104010.88
2023-02-07T02:25:07.007Z,104013.25
2023-02-07T02:28:08.498Z,104017.56
2023-02-07T02:31:06.605Z,104018.47
2023-02-07T02:33:45.208Z,104013.22
2023-02-07T02:36:26.819Z,104007.16
2023-02-07T02:39:04.227Z,104009.53
2023-02-07T02:41:39.631Z,103999.25
2023-02-07T02:44:14.315Z,103990.72
2023-02-07T02:46:46.100Z,103984.00
2023-02-07T02:49:19.181Z,103984.03
2023-02-07T02:51:52.638Z,103978.91
2023-02-07T02:54:33.128Z,103966.06
2023-02-07T02:57:28.401Z,103971.84
2023-02-07T03:00:19.596Z,103970.75
2023-02-07T03:03:01.718Z,103969.00
2023-02-07T03:05:47.211Z,103979.47
2023-02-07T03:08:26.462Z,103970.88
2023-02-07T03:11:00.987Z,103973.47
2023-02-07T03:13:35.113Z,103975.25
2023-02-07T03:16:13.671Z,103967.56
2023-02-07T03:18:52.369Z,103966.69
2023-02-07T03:21:30.892Z,103966.63
2023-02-07T03:24:06.306Z,103970.91
2023-02-07T03:26:38.079Z,103958.81
2023-02-07T03:29:09.958Z,103950.19
2023-02-07T03:31:43.554Z,103963.19
2023-02-07T03:34:18.466Z,103966.63
2023-02-07T03:36:56.541Z,103963.25
2023-02-07T03:39:25.963Z,103959.75
2023-02-07T03:41:58.150Z,103945.06
2023-02-07T03:44:29.864Z,103940.03
2023-02-07T03:46:59.417Z,103944.25
2023-02-07T03:49:28.744Z,103945.06
2023-02-07T03:51:59.231Z,103939.03
2023-02-07T03:54:28.919Z,103951.06
2023-02-07T03:56:57.962Z,103939.06
2023-02-07T03:59:27.165Z,103953.44
2023-02-07T04:01:56.516Z,103954.22
2023-02-07T04:04:25.616Z,103953.44
2023-02-07T04:06:54.838Z,103951.81
2023-02-07T04:09:25.287Z,103941.38
2023-02-07T04:11:54.383Z,103947.19
2023-02-07T04:14:23.473Z,103945.91
2023-02-07T04:16:52.575Z,103952.66
2023-02-07T04:19:22.002Z,103944.81
2023-02-07T04:21:51.194Z,103942.06
2023-02-07T04:24:22.355Z,103939.38
2023-02-07T04:26:52.859Z,103947.25
2023-02-07T04:29:21.943Z,103943.97
2023-02-07T04:31:51.489Z,103950.88
2023-02-07T04:34:20.577Z,103941.31
2023-02-07T04:36:49.689Z,103949.97
2023-02-07T04:39:18.716Z,103961.00
2023-02-07T04:41:47.771Z,103967.72
2023-02-07T04:44:18.193Z,103977.16
2023-02-07T04:46:47.257Z,103972.78
2023-02-07T04:49:16.400Z,103979.38
2023-02-07T04:51:45.454Z,103970.63
2023-02-07T04:54:14.553Z,103957.63
2023-02-07T04:56:43.673Z,103949.75
2023-02-07T04:59:12.737Z,103961.41
2023-02-07T05:01:43.197Z,103969.00
2023-02-07T05:04:12.370Z,103962.06
2023-02-07T05:06:41.466Z,103961.28
2023-02-07T05:09:10.517Z,103957.03
2023-02-07T05:11:39.657Z,103961.75
2023-02-07T05:14:08.735Z,103960.88
2023-02-07T05:16:37.836Z,103973.50
2023-02-07T05:19:08.361Z,103977.63
2023-02-07T05:21:37.399Z,103980.13
2023-02-07T05:24:06.802Z,103982.25
2023-02-07T05:26:35.893Z,103990.91
2023-02-07T05:29:05.398Z,103989.47
2023-02-07T05:31:51.951Z,103990.38
2023-02-07T05:34:22.430Z,103993.88
2023-02-07T05:36:51.512Z,103992.06
2023-02-07T05:39:20.589Z,104004.84
2023-02-07T05:41:49.627Z,104001.44
2023-02-07T05:44:18.920Z,104001.16
2023-02-07T05:46:47.923Z,103997.13
2023-02-07T05:49:17.074Z,104000.44
2023-02-07T05:51:47.580Z,103995.19
2023-02-07T05:54:16.656Z,104006.09
2023-02-07T05:56:45.946Z,104003.66
2023-02-07T05:59:15.125Z,103995.13
2023-02-07T06:01:44.338Z,103995.84
2023-02-07T06:04:13.438Z,104001.34
2023-02-07T06:06:44.041Z,103991.97
2023-02-07T06:09:14.671Z,103999.13
2023-02-07T06:11:43.798Z,103996.78
2023-02-07T06:14:12.929Z,103991.69
2023-02-07T06:16:42.000Z,104004.19
2023-02-07T06:19:12.921Z,104005.50
2023-02-07T06:21:46.785Z,104008.25
2023-02-07T06:24:17.699Z,104026.34
2023-02-07T06:26:46.955Z,104027.28
2023-02-07T06:29:16.512Z,104021.06
2023-02-07T06:31:46.710Z,104030.41
2023-02-07T06:34:16.809Z,104024.44
2023-02-07T06:36:46.391Z,104028.72
2023-02-07T06:39:17.746Z,104034.75
2023-02-07T06:41:47.782Z,104039.34
2023-02-07T06:44:17.891Z,104037.38
2023-02-07T06:46:47.153Z,104029.75
2023-02-07T06:49:16.885Z,104030.41
2023-02-07T06:51:46.815Z,104036.34
2023-02-07T06:54:18.748Z,104037.31
2023-02-07T06:56:48.046Z,104039.13
2023-02-07T06:59:18.197Z,104043.75
2023-02-07T07:01:49.526Z,104047.78
2023-02-07T07:04:20.918Z,104043.66
2023-02-07T07:06:50.863Z,104055.53
2023-02-07T07:09:21.713Z,104061.16
2023-02-07T07:11:50.752Z,104047.97
2023-02-07T07:14:20.203Z,104050.03
2023-02-07T07:16:49.313Z,104059.06
2023-02-07T07:19:18.638Z,104055.06
2023-02-07T07:21:47.703Z,104066.63
2023-02-07T07:24:35.565Z,104068.19
2023-02-07T07:27:04.828Z,104063.81
2023-02-07T07:29:34.026Z,104068.00
2023-02-07T07:32:03.158Z,104060.97
2023-02-07T07:34:32.392Z,104063.66
2023-02-07T07:37:01.771Z,104070.44
2023-02-07T07:39:30.945Z,104061.78
2023-02-07T07:42:01.615Z,104050.38
2023-02-07T07:44:47.946Z,104054.81
2023-02-07T07:47:17.052Z,104059.59
2023-02-07T07:49:46.213Z,104046.63
2023-02-07T07:52:15.271Z,104046.56
2023-02-07T07:54:44.337Z,104046.84
2023-02-07T07:57:19.862Z,104046.50
2023-02-07T07:59:52.369Z,104047.06
2023-02-07T08:02:21.816Z,104044.75
2023-02-07T08:04:51.402Z,104040.50
2023-02-07T08:07:20.501Z,104035.09
2023-02-07T08:09:49.849Z,104041.09
2023-02-07T08:12:20.443Z,104034.25
2023-02-07T08:14:49.592Z,104033.34
2023-02-07T08:17:19.787Z,104030.94
2023-02-07T08:19:48.967Z,104029.41
2023-02-07T08:22:18.742Z,104029.34
2023-02-07T08:24:47.876Z,104031.00
2023-02-07T08:27:17.086Z,104032.09
2023-02-07T08:29:47.534Z,104037.50
2023-02-07T08:32:16.737Z,104026.75
2023-02-07T08:34:47.234Z,104023.19
2023-02-07T08:37:16.512Z,104025.72
2023-02-07T08:39:45.947Z,104019.88
2023-02-07T08:42:14.989Z,104012.25
2023-02-07T08:44:44.043Z,104018.38
2023-02-07T08:47:14.448Z,104027.94
2023-02-07T08:49:43.936Z,104030.69
2023-02-07T08:52:13.418Z,104024.66
2023-02-07T08:54:42.712Z,104026.63
2023-02-07T08:57:12.096Z,104024.25
2023-02-07T08:59:41.132Z,104020.41
2023-02-07T09:02:11.966Z,104034.06
2023-02-07T09:04:43.500Z,104029.78
2023-02-07T09:07:13.178Z,104030.72
2023-02-07T09:09:42.284Z,104036.91
2023-02-07T09:12:12.117Z,104032.63
2023-02-07T09:14:41.981Z,104035.94
2023-02-07T09:17:11.046Z,104027.97
2023-02-07T09:19:41.486Z,104027.38
2023-02-07T09:22:10.583Z,104026.47
2023-02-07T09:24:39.864Z,104024.13
2023-02-07T09:27:09.123Z,104028.41
2023-02-07T09:29:38.248Z,104024.47
2023-02-07T09:32:07.416Z,104033.50
2023-02-07T09:34:36.790Z,104031.03
2023-02-07T09:37:07.200Z,104025.22
2023-02-07T09:39:40.127Z,104036.81
2023-02-07T09:42:22.627Z,104033.28
2023-02-07T09:45:00.016Z,104037.72
2023-02-07T09:47:29.456Z,104040.03
2023-02-07T09:50:03.713Z,104041.69
2023-02-07T09:52:40.812Z,104036.47
2023-02-07T09:55:19.070Z,104034.91
2023-02-07T09:57:52.558Z,104050.47
2023-02-07T10:00:24.448Z,104051.19
2023-02-07T10:02:58.513Z,104045.91
2023-02-07T10:05:34.240Z,104058.28
2023-02-07T10:08:04.749Z,104050.75
2023-02-07T10:10:42.563Z,104052.38
2023-02-07T10:13:29.452Z,104060.03
2023-02-07T10:16:14.828Z,104040.44
2023-02-07T10:18:50.167Z,104041.09
2023-02-07T10:21:28.363Z,104046.56
2023-02-07T10:24:15.102Z,104038.94
2023-02-07T10:26:50.586Z,104041.38
2023-02-07T10:29:38.863Z,104033.78
2023-02-07T10:32:15.124Z,104038.00
2023-02-07T10:34:47.703Z,104022.44
2023-02-07T10:37:20.839Z,104025.97
2023-02-07T10:40:00.334Z,104031.28
2023-02-07T10:42:32.465Z,104021.72
2023-02-07T10:45:01.741Z,104024.41
2023-02-07T10:47:34.428Z,104018.78
2023-02-07T10:50:10.477Z,104023.78
2023-02-07T10:52:44.829Z,104030.53
2023-02-07T10:55:19.066Z,104019.06
2023-02-07T10:58:02.682Z,104015.75
2023-02-07T11:00:37.918Z,104014.09
2023-02-07T11:03:08.454Z,104012.63
2023-02-07T11:05:51.776Z,104014.41
2023-02-07T11:08:24.594Z,104022.00
2023-02-07T11:10:57.158Z,104019.53
2023-02-07T11:13:29.204Z,104010.91
2023-02-07T11:16:04.072Z,104005.13
2023-02-07T11:18:44.516Z,104005.34
2023-02-07T11:21:28.498Z,104012.03
2023-02-07T11:24:01.545Z,104007.25
2023-02-07T11:26:33.665Z,103999.41
2023-02-07T11:29:14.698Z,103989.06
2023-02-07T11:31:45.996Z,103987.22
2023-02-07T11:34:46.875Z,103977.03
2023-02-07T11:37:28.523Z,103976.19
2023-02-07T11:40:15.982Z,103977.88
2023-02-07T11:42:50.227Z,103974.53
2023-02-07T11:45:23.813Z,103969.34
2023-02-07T11:47:57.594Z,103971.91
2023-02-07T11:50:30.550Z,103973.66
2023-02-07T11:53:01.755Z,103967.63
2023-02-07T11:55:35.764Z,103975.38
2023-02-07T11:58:11.258Z,103973.66
2023-02-07T12:00:40.602Z,103969.34
2023-02-07T12:03:20.983Z,103968.47
2023-02-07T12:05:53.461Z,103965.91
2023-02-07T12:08:25.722Z,103964.16
2023-02-07T12:10:59.251Z,103965.03
2023-02-07T12:13:35.116Z,103953.72
2023-02-07T12:16:09.712Z,103948.66
2023-02-07T12:18:43.049Z,103952.06
2023-02-07T12:21:19.553Z,103955.47
2023-02-07T12:23:55.396Z,103949.34
2023-02-07T12:26:25.982Z,103948.44
2023-02-07T12:29:15.922Z,103942.50
2023-02-07T12:31:55.740Z,103940.00
2023-02-07T12:34:31.615Z,103947.75
2023-02-07T12:37:06.744Z,103941.69
2023-02-07T12:39:44.239Z,103934.75
2023-02-07T12:42:35.099Z,103940.00
2023-02-07T12:45:07.024Z,103938.19
2023-02-07T12:47:47.493Z,103938.28
2023-02-07T12:50:24.911Z,103936.53
2023-02-07T12:53:07.496Z,103950.34
2023-02-07T12:55:48.948Z,103952.06
2023-02-07T12:58:35.503Z,103957.28
2023-02-07T13:01:12.869Z,103954.69
2023-02-07T13:04:03.130Z,103952.94
2023-02-07T13:06:42.426Z,103960.72
2023-02-07T13:09:17.335Z,103954.66
2023-02-07T13:11:55.694Z,103959.00
2023-02-07T13:14:37.720Z,103952.09
2023-02-07T13:17:29.079Z,103952.09
2023-02-07T13:20:04.257Z,103946.00
2023-02-07T13:22:38.571Z,103954.66
2023-02-07T13:25:15.943Z,103952.94
2023-02-07T13:27:46.068Z,103951.25
2023-02-07T13:30:17.350Z,103957.22
2023-02-07T13:32:49.049Z,103959.84
2023-02-07T13:35:22.739Z,103955.50
2023-02-07T13:38:00.328Z,103950.97
2023-02-07T13:40:37.870Z,103958.03
2023-02-07T13:43:11.990Z,103949.38
2023-02-07T13:45:51.682Z,103943.88
2023-02-07T13:48:29.372Z,103947.03
2023-02-07T13:51:04.850Z,103943.69
2023-02-07T13:53:49.366Z,103935.94
2023-02-07T13:56:32.490Z,103935.69
2023-02-07T13:59:22.344Z,103931.22
2023-02-07T14:01:54.281Z,103926.41
2023-02-07T14:04:25.770Z,103926.88
2023-02-07T14:07:18.862Z,103918.38
2023-02-07T14:09:49.847Z,103927.94
2023-02-07T14:12:22.767Z,103929.06
2023-02-07T14:15:02.145Z,103921.69
2023-02-07T14:17:58.821Z,103914.63
2023-02-07T14:21:00.766Z,103929.75
2023-02-07T14:23:59.209Z,103919.69
2023-02-07T14:26:50.855Z,103927.53
2023-02-07T14:29:55.462Z,103925.69
2023-02-07T14:32:31.493Z,103934.84
2023-02-07T14:35:03.561Z,103930.16
2023-02-07T14:37:42.326Z,103934.34
2023-02-07T14:40:23.997Z,103927.66
2023-02-07T14:43:00.215Z,103929.38
2023-02-07T14:45:32.408Z,103939.59
2023-02-07T14:48:02.132Z,103931.13
2023-02-07T14:50:33.594Z,103930.47
2023-02-07T14:53:06.856Z,103926.00
2023-02-07T14:55:43.112Z,103926.97
2023-02-07T14:58:27.008Z,103921.69
2023-02-07T15:00:59.594Z,103923.25
2023-02-07T15:03:33.940Z,103920.78
2023-02-07T15:06:05.646Z,103920.91
2023-02-07T15:08:40.305Z,103929.63
2023-02-07T15:11:12.640Z,103916.72
2023-02-07T15:13:45.424Z,103911.50
2023-02-07T15:16:18.896Z,103921.88
2023-02-07T15:18:53.215Z,103924.44
2023-02-07T15:21:28.785Z,103926.19
2023-02-07T15:24:05.289Z,103928.75
2023-02-07T15:26:36.320Z,103935.63
2023-02-07T15:29:07.684Z,103935.66
2023-02-07T15:31:41.330Z,103932.13
2023-02-07T15:34:16.831Z,103927.84
2023-02-07T15:36:47.562Z,103923.53
2023-02-07T15:39:19.995Z,103918.31
2023-02-07T15:41:51.030Z,103920.91
2023-02-07T15:44:24.988Z,103911.38
2023-02-07T15:46:56.793Z,103907.91
2023-02-07T15:49:35.102Z,103905.31
2023-02-07T15:52:14.662Z,103909.66
2023-02-07T15:54:49.394Z,103907.88
2023-02-07T15:57:25.461Z,103899.22
2023-02-07T15:59:56.593Z,103913.84
2023-02-07T16:02:31.401Z,103919.00
2023-02-07T16:05:08.410Z,103909.50
2023-02-07T16:07:39.731Z,103918.97
2023-02-07T16:10:34.872Z,103919.81
2023-02-07T16:13:11.836Z,103920.66
2023-02-07T16:15:53.394Z,103921.47
2023-02-07T16:18:37.205Z,103919.66
2023-02-07T16:21:08.486Z,103918.81
2023-02-07T16:23:37.567Z,103915.38
2023-02-07T16:26:08.221Z,103905.91
2023-02-07T16:28:37.579Z,103917.78
2023-02-07T16:31:07.054Z,103909.09
2023-02-07T16:33:38.988Z,103917.66
2023-02-07T16:36:15.252Z,103915.00
2023-02-07T16:38:45.106Z,103924.38
2023-02-07T16:41:28.098Z,103920.97
2023-02-07T16:43:57.290Z,103921.69
2023-02-07T16:46:26.495Z,103930.13
2023-02-07T16:48:55.552Z,103929.22
2023-02-07T16:51:24.988Z,103930.03
2023-02-07T16:53:54.167Z,103936.78
2023-02-07T16:56:27.592Z,103931.50
2023-02-07T16:58:56.695Z,103931.28
2023-02-07T17:01:25.902Z,103932.97
2023-02-07T17:03:54.968Z,103938.13
2023-02-07T17:06:25.700Z,103939.06
2023-02-07T17:08:56.426Z,103934.53
2023-02-07T17:11:27.637Z,103925.84
2023-02-07T17:13:58.677Z,103925.81
2023-02-07T17:16:28.838Z,103927.59
2023-02-07T17:18:59.126Z,103925.84
2023-02-07T17:21:28.331Z,103928.22
2023-02-07T17:23:57.566Z,103927.34
2023-02-07T17:26:31.847Z,103920.41
2023-02-07T17:29:00.968Z,103925.56
2023-02-07T17:31:32.031Z,103927.13
2023-02-07T17:34:01.160Z,103927.97
2023-02-07T17:36:30.608Z,103922.81
2023-02-07T17:39:00.140Z,103920.06
2023-02-07T17:41:31.421Z,103918.22
2023-02-07T17:44:00.451Z,103915.56
2023-02-07T17:46:29.701Z,103924.19
2023-02-07T17:49:00.909Z,103918.94
2023-02-07T17:51:30.627Z,103919.72
2023-02-07T17:53:59.733Z,103923.97
2023-02-07T17:56:31.855Z,103926.53
2023-02-07T17:59:03.202Z,103920.53
2023-02-07T18:01:32.552Z,103918.66
2023-02-07T18:04:02.403Z,103922.09
2023-02-07T18:06:32.011Z,103922.03
2023-02-07T18:09:01.228Z,103918.75
2023-02-07T18:11:32.709Z,103919.78
2023-02-07T18:14:02.863Z,103918.06
2023-02-07T18:16:31.988Z,103913.78
2023-02-07T18:19:01.043Z,103920.44
2023-02-07T18:21:30.776Z,103923.09
2023-02-07T18:23:59.909Z,103918.94
2023-02-07T18:26:28.998Z,103924.09
2023-02-07T18:29:00.263Z,103924.84
2023-02-07T18:31:30.613Z,103917.28
2023-02-07T18:33:59.718Z,103919.91
2023-02-07T18:36:33.956Z,103925.22
2023-02-07T18:39:02.983Z,103918.34
2023-02-07T18:41:32.045Z,103920.06
2023-02-07T18:44:03.045Z,103911.44
2023-02-07T18:46:32.803Z,103920.13
2023-02-07T18:49:02.182Z,103932.97
2023-02-07T18:51:31.377Z,103929.56
2023-02-07T18:54:00.536Z,103934.59
2023-02-07T18:56:29.717Z,103933.78
2023-02-07T18:58:59.145Z,103945.50
2023-02-07T19:01:38.497Z,103942.03
2023-02-07T19:04:10.832Z,103934.09
2023-02-07T19:06:39.877Z,103934.94
2023-02-07T19:09:09.259Z,103936.50
2023-02-07T19:11:39.071Z,103935.75
2023-02-07T19:14:22.832Z,103934.88
2023-02-07T19:16:56.637Z,103940.91
2023-02-07T19:19:27.952Z,103942.44
2023-02-07T19:21:57.657Z,103931.97
2023-02-07T19:24:28.248Z,103936.06
2023-02-07T19:26:59.514Z,103922.31
2023-02-07T19:29:33.335Z,103928.22
2023-02-07T19:32:05.871Z,103920.47
2023-02-07T19:34:37.705Z,103916.97
2023-02-07T19:37:06.817Z,103920.47
2023-02-07T19:39:36.327Z,103921.53
2023-02-07T19:42:05.554Z,103923.19
2023-02-07T19:44:34.852Z,103931.75
2023-02-07T19:47:05.421Z,103917.94
2023-02-07T19:49:34.947Z,103928.91
2023-02-07T19:52:04.287Z,103922.06
2023-02-07T19:54:33.473Z,103928.13
2023-02-07T19:57:04.767Z,103928.00
2023-02-07T19:59:35.508Z,103928.00
2023-02-07T20:02:05.978Z,103927.03
2023-02-07T20:04:35.205Z,103924.56
2023-02-07T20:07:04.607Z,103927.22
2023-02-07T20:09:34.062Z,103931.34
2023-02-07T20:12:05.594Z,103930.34
2023-02-07T20:14:36.657Z,103926.91
2023-02-07T20:17:07.964Z,103924.22
2023-02-07T20:19:38.187Z,103931.06
2023-02-07T20:22:07.892Z,103932.75
2023-02-07T20:24:37.760Z,103926.66
2023-02-07T20:27:06.776Z,103921.38
2023-02-07T20:29:35.812Z,103936.75
2023-02-07T20:32:06.670Z,103923.22
2023-02-07T20:34:40.654Z,103921.31
2023-02-07T20:37:10.330Z,103919.53
2023-02-07T20:39:39.825Z,103925.06
2023-02-07T20:42:08.935Z,103915.97
2023-02-07T20:44:38.105Z,103915.69
2023-02-07T20:47:11.590Z,103922.53
2023-02-07T20:49:40.679Z,103916.72
2023-02-07T20:52:12.839Z,103919.50
2023-02-07T20:54:41.840Z,103914.28
2023-02-07T20:57:10.910Z,103912.53
2023-02-07T20:59:39.928Z,103914.19
2023-02-07T21:02:11.275Z,103914.13
2023-02-07T21:04:40.366Z,103905.66
2023-02-07T21:07:09.596Z,103912.63
2023-02-07T21:09:38.889Z,103910.34
2023-02-07T21:12:08.388Z,103904.97
2023-02-07T21:14:37.476Z,103911.84
2023-02-07T21:17:09.510Z,103912.84
2023-02-07T21:19:43.129Z,103912.84
2023-02-07T21:22:12.429Z,103915.38
2023-02-07T21:24:42.940Z,103918.72
2023-02-07T21:27:12.795Z,103916.91
2023-02-07T21:29:41.884Z,103921.38
2023-02-07T21:32:12.295Z,103917.94
2023-02-07T21:34:41.757Z,103930.47
2023-02-07T21:37:10.924Z,103928.00
2023-02-07T21:39:40.127Z,103929.56
2023-02-07T21:42:09.326Z,103926.06
2023-02-07T21:44:38.969Z,103925.81
2023-02-07T21:47:08.094Z,103935.03
2023-02-07T21:49:38.630Z,103928.00
2023-02-07T21:52:07.707Z,103927.75
2023-02-07T21:54:36.734Z,103929.38
2023-02-07T21:57:06.147Z,103930.94
2023-02-07T21:59:35.239Z,103930.00
2023-02-07T22:02:04.480Z,103925.59
2023-02-07T22:04:33.549Z,103922.91
2023-02-07T22:07:04.016Z,103919.47
2023-02-07T22:09:33.099Z,103925.44
2023-02-07T22:12:02.188Z,103922.16
2023-02-07T22:14:31.250Z,103919.34
2023-02-07T22:17:00.450Z,103925.63
2023-02-07T22:19:30.062Z,103930.50
2023-02-07T22:21:59.447Z,103925.97
2023-02-07T22:24:32.049Z,103924.09
2023-02-07T22:27:01.098Z,103924.91
2023-02-07T22:29:30.196Z,103925.75
2023-02-07T22:31:59.279Z,103924.94
2023-02-07T22:34:28.415Z,103928.31
2023-02-07T22:36:57.492Z,103931.41
2023-02-07T22:39:26.492Z,103935.84
2023-02-07T22:41:58.238Z,103935.91
2023-02-07T22:44:27.379Z,103929.13
2023-02-07T22:46:56.464Z,103932.97
2023-02-07T22:49:25.500Z,103929.19
2023-02-07T22:51:54.927Z,103928.84
2023-02-07T22:54:24.114Z,103921.91
2023-02-07T22:56:53.138Z,103921.72
2023-02-07T22:59:23.556Z,103923.19
2023-02-07T23:01:52.632Z,103926.59
2023-02-07T23:04:21.672Z,103924.03
2023-02-07T23:06:50.705Z,103928.06
2023-02-07T23:09:19.739Z,103929.13
2023-02-07T23:11:48.822Z,103931.75
2023-02-07T23:14:18.212Z,103929.31
2023-02-07T23:16:48.613Z,103927.94
2023-02-07T23:19:19.229Z,103934.00
2023-02-07T23:21:48.322Z,103938.19
2023-02-07T23:24:17.402Z,103938.31
2023-02-07T23:26:46.556Z,103941.03
2023-02-07T23:29:15.605Z,103926.72
2023-02-07T23:31:44.774Z,103930.31
2023-02-07T23:34:15.707Z,103935.47
2023-02-07T23:36:44.910Z,103934.47
2023-02-07T23:39:13.992Z,103932.88
2023-02-07T23:41:43.145Z,103940.59
2023-02-07T23:44:12.302Z,103935.56
2023-02-07T23:46:41.393Z,103944.13
2023-02-07T23:49:10.951Z,103937.25
2023-02-07T23:51:41.609Z,103942.38
2023-02-07T23:54:11.309Z,103937.09
2023-02-07T23:56:40.370Z,103936.31
2023-02-07T23:59:10.580Z,103949.16
